createdAt,value
2023-01-17T00:02:49.724Z,4.32
2023-01-17T00:06:11.768Z,4.40
2023-01-17T00:09:34.016Z,4.33
2023-01-17T00:12:37.150Z,4.38
2023-01-17T00:15:40.236Z,4.39
2023-01-17T00:19:03.237Z,4.46
2023-01-17T00:22:38.804Z,4.49
2023-01-17T00:26:00.651Z,4.52
2023-01-17T00:29:03.366Z,4.53
2023-01-17T00:32:06.384Z,4.55
2023-01-17T00:35:09.099Z,4.58
2023-01-17T00:38:15.095Z,4.60
2023-01-17T00:41:18.271Z,4.55
2023-01-17T00:44:39.925Z,4.59
2023-01-17T00:48:04.772Z,4.56
2023-01-17T00:51:26.764Z,4.56
2023-01-17T00:54:47.942Z,4.55
2023-01-17T00:58:09.595Z,4.55
2023-01-17T01:01:31.018Z,4.59
2023-01-17T01:04:52.644Z,4.58
2023-01-17T01:08:14.284Z,4.59
2023-01-17T01:11:39.543Z,4.55
2023-01-17T01:15:00.814Z,4.59
2023-01-17T01:18:30.332Z,4.60
2023-01-17T01:21:51.843Z,4.59
2023-01-17T01:25:13.741Z,4.58
2023-01-17T01:28:34.817Z,4.50
2023-01-17T01:31:56.506Z,4.47
2023-01-17T01:34:59.194Z,4.43
2023-01-17T01:38:03.201Z,4.38
2023-01-17T01:41:06.248Z,4.33
2023-01-17T01:44:46.744Z,4.32
2023-01-17T01:47:51.706Z,4.23
2023-01-17T01:50:55.336Z,4.29
2023-01-17T01:54:04.939Z,4.25
2023-01-17T01:57:11.463Z,4.24
2023-01-17T02:00:20.133Z,4.26
2023-01-17T02:03:30.061Z,4.32
2023-01-17T02:06:39.965Z,4.35
2023-01-17T02:09:43.203Z,4.35
2023-01-17T02:12:46.968Z,4.37
2023-01-17T02:16:19.171Z,4.39
2023-01-17T02:19:43.208Z,4.39
2023-01-17T02:22:58.318Z,4.37
2023-01-17T02:26:19.564Z,4.43
2023-01-17T02:30:10.319Z,4.44
2023-01-17T02:33:54.664Z,4.46
2023-01-17T02:37:08.028Z,4.47
2023-01-17T02:40:16.995Z,4.48
2023-01-17T02:43:22.040Z,4.48
2023-01-17T02:46:24.801Z,4.50
2023-01-17T02:49:32.112Z,4.56
2023-01-17T02:52:49.765Z,4.56
2023-01-17T02:56:04.934Z,4.57
2023-01-17T02:59:48.338Z,4.59
2023-01-17T03:03:20.045Z,4.60
2023-01-17T03:06:45.179Z,4.70
2023-01-17T03:09:53.789Z,4.73
2023-01-17T03:13:01.009Z,4.82
2023-01-17T03:16:07.291Z,4.85
2023-01-17T03:19:10.185Z,4.92
2023-01-17T03:22:13.365Z,5.01
2023-01-17T03:25:17.345Z,5.04
2023-01-17T03:28:20.435Z,5.11
2023-01-17T03:31:23.162Z,5.04
2023-01-17T03:34:26.262Z,5.06
2023-01-17T03:37:29.008Z,5.14
2023-01-17T03:40:32.099Z,5.23
2023-01-17T03:43:34.915Z,5.26
2023-01-17T03:46:37.976Z,5.29
2023-01-17T03:49:40.846Z,5.21
2023-01-17T03:52:43.921Z,5.18
2023-01-17T03:55:47.258Z,5.21
2023-01-17T03:58:51.704Z,5.10
2023-01-17T04:01:54.539Z,5.03
2023-01-17T04:04:57.591Z,5.02
2023-01-17T04:08:00.328Z,5.00
2023-01-17T04:11:03.335Z,5.00
2023-01-17T04:14:06.108Z,5.00
2023-01-17T04:17:18.750Z,5.00
2023-01-17T04:20:34.453Z,4.99
2023-01-17T04:23:37.564Z,4.96
2023-01-17T04:26:40.236Z,4.94
2023-01-17T04:29:45.309Z,4.97
2023-01-17T04:32:49.727Z,4.95
2023-01-17T04:35:54.057Z,4.94
2023-01-17T04:38:57.004Z,5.01
2023-01-17T04:42:00.235Z,4.99
2023-01-17T04:45:04.059Z,4.99
2023-01-17T04:48:07.610Z,4.96
2023-01-17T04:51:10.743Z,4.97
2023-01-17T04:54:13.843Z,4.99
2023-01-17T04:57:17.921Z,5.01
2023-01-17T05:00:23.902Z,4.99
2023-01-17T05:03:27.177Z,4.98
2023-01-17T05:06:30.305Z,4.99
2023-01-17T05:09:33.288Z,4.90
2023-01-17T05:12:37.447Z,4.80
2023-01-17T05:15:40.447Z,4.66
2023-01-17T05:18:43.516Z,4.53
2023-01-17T05:21:46.209Z,4.48
2023-01-17T05:24:49.341Z,4.46
2023-01-17T05:27:52.240Z,4.44
2023-01-17T05:30:55.486Z,4.43
2023-01-17T05:33:58.132Z,4.47
2023-01-17T05:37:01.177Z,4.45
2023-01-17T05:40:06.377Z,4.41
2023-01-17T05:43:09.465Z,4.44
2023-01-17T05:46:12.599Z,4.42
2023-01-17T05:49:15.662Z,4.34
2023-01-17T05:52:18.412Z,4.26
2023-01-17T05:55:22.432Z,3.99
2023-01-17T05:58:25.152Z,3.86
2023-01-17T06:01:28.533Z,3.72
2023-01-17T06:04:31.744Z,3.54
2023-01-17T06:07:34.825Z,3.33
2023-01-17T06:10:37.894Z,3.16
2023-01-17T06:13:40.577Z,3.12
2023-01-17T06:16:43.995Z,3.15
2023-01-17T06:19:46.862Z,3.17
2023-01-17T06:22:50.129Z,3.13
2023-01-17T06:25:53.015Z,3.08
2023-01-17T06:28:55.951Z,3.07
2023-01-17T06:32:01.528Z,3.04
2023-01-17T06:35:05.048Z,3.05
2023-01-17T06:38:10.151Z,2.99
2023-01-17T06:41:13.124Z,3.02
2023-01-17T06:44:15.945Z,2.99
2023-01-17T06:47:18.923Z,2.91
2023-01-17T06:50:22.330Z,2.94
2023-01-17T06:53:25.455Z,2.94
2023-01-17T06:56:32.017Z,2.98
2023-01-17T06:59:35.150Z,2.93
2023-01-17T07:02:37.913Z,2.93
2023-01-17T07:05:41.799Z,2.93
2023-01-17T07:08:44.779Z,2.84
2023-01-17T07:11:47.890Z,2.79
2023-01-17T07:14:50.608Z,2.69
2023-01-17T07:17:53.603Z,2.64
2023-01-17T07:20:56.450Z,2.64
2023-01-17T07:23:59.490Z,2.66
2023-01-17T07:27:02.297Z,2.66
2023-01-17T07:30:06.366Z,2.68
2023-01-17T07:33:09.838Z,2.70
2023-01-17T07:36:12.928Z,2.82
2023-01-17T07:39:16.461Z,2.87
2023-01-17T07:42:19.612Z,3.14
2023-01-17T07:45:22.303Z,3.15
2023-01-17T07:48:25.406Z,3.09
2023-01-17T07:51:28.699Z,3.03
2023-01-17T07:54:31.899Z,2.79
2023-01-17T07:57:34.772Z,2.79
2023-01-17T08:00:37.994Z,2.91
2023-01-17T08:03:41.615Z,2.75
2023-01-17T08:06:47.849Z,2.92
2023-01-17T08:09:50.975Z,3.11
2023-01-17T08:12:53.843Z,3.25
2023-01-17T08:15:57.231Z,3.52
2023-01-17T08:18:59.922Z,3.59
2023-01-17T08:22:03.031Z,3.56
2023-01-17T08:25:06.443Z,3.64
2023-01-17T08:28:09.940Z,3.79
2023-01-17T08:31:12.709Z,4.05
2023-01-17T08:34:16.309Z,4.33
2023-01-17T08:37:19.037Z,4.76
2023-01-17T08:40:23.243Z,5.42
2023-01-17T08:43:26.013Z,5.81
2023-01-17T08:46:30.918Z,6.30
2023-01-17T08:49:34.928Z,6.92
2023-01-17T08:52:38.534Z,7.63
2023-01-17T08:55:41.352Z,8.50
2023-01-17T08:58:44.755Z,9.20
2023-01-17T09:01:47.641Z,10.61
2023-01-17T09:04:51.692Z,10.86
2023-01-17T09:07:56.769Z,11.99
2023-01-17T09:11:04.176Z,12.07
2023-01-17T09:14:07.242Z,12.06
2023-01-17T09:17:10.630Z,12.69
2023-01-17T09:20:14.191Z,13.10
2023-01-17T09:23:17.249Z,13.54
2023-01-17T09:26:23.981Z,13.61
2023-01-17T09:29:27.625Z,13.47
2023-01-17T09:32:30.446Z,12.44
2023-01-17T09:35:34.595Z,11.76
2023-01-17T09:38:38.153Z,10.75
2023-01-17T09:42:00.049Z,10.51
2023-01-17T09:45:03.188Z,11.52
2023-01-17T09:48:10.409Z,11.38
2023-01-17T09:51:21.449Z,10.62
2023-01-17T09:54:29.992Z,9.58
2023-01-17T09:58:14.303Z,9.97
2023-01-17T10:01:37.711Z,11.10
2023-01-17T10:05:08.649Z,11.88
2023-01-17T10:08:20.447Z,11.47
2023-01-17T10:11:41.951Z,12.20
2023-01-17T10:15:15.223Z,12.72
2023-01-17T10:18:29.909Z,14.14
2023-01-17T10:21:59.399Z,13.51
2023-01-17T10:25:23.394Z,14.27
2023-01-17T10:28:41.709Z,14.43
2023-01-17T10:32:03.124Z,14.28
2023-01-17T10:35:33.383Z,13.48
2023-01-17T10:38:38.920Z,12.23
2023-01-17T10:41:46.444Z,12.67
2023-01-17T10:45:08.187Z,13.60
2023-01-17T10:48:18.787Z,12.73
2023-01-17T10:51:31.628Z,13.93
2023-01-17T10:54:53.073Z,14.46
2023-01-17T10:57:58.132Z,13.53
2023-01-17T11:01:07.954Z,14.38
2023-01-17T11:04:23.241Z,15.47
2023-01-17T11:07:28.656Z,15.49
2023-01-17T11:10:54.428Z,15.69
2023-01-17T11:14:01.041Z,15.57
2023-01-17T11:17:07.138Z,15.41
2023-01-17T11:20:35.391Z,15.94
2023-01-17T11:23:42.331Z,16.02
2023-01-17T11:26:48.145Z,15.11
2023-01-17T11:30:26.290Z,14.07
2023-01-17T11:33:45.406Z,15.58
2023-01-17T11:36:50.265Z,15.62
2023-01-17T11:40:07.786Z,13.07
2023-01-17T11:43:18.917Z,13.53
2023-01-17T11:46:22.133Z,14.63
2023-01-17T11:49:26.204Z,14.59
2023-01-17T11:52:33.832Z,15.32
2023-01-17T11:55:37.047Z,15.87
2023-01-17T11:58:42.644Z,15.04
2023-01-17T12:01:48.530Z,15.66
2023-01-17T12:05:15.580Z,15.71
2023-01-17T12:08:33.416Z,14.56
2023-01-17T12:12:29.504Z,14.31
2023-01-17T12:15:52.148Z,13.70
2023-01-17T12:19:26.291Z,13.50
2023-01-17T12:23:03.091Z,13.63
2023-01-17T12:26:26.446Z,12.44
2023-01-17T12:29:44.077Z,11.29
2023-01-17T12:33:19.336Z,10.64
2023-01-17T12:36:22.063Z,10.40
2023-01-17T12:39:34.596Z,9.92
2023-01-17T12:42:41.592Z,9.38
2023-01-17T12:45:47.643Z,8.89
2023-01-17T12:48:54.633Z,8.77
2023-01-17T12:52:21.654Z,8.54
2023-01-17T12:55:36.738Z,8.42
2023-01-17T12:58:47.493Z,8.21
2023-01-17T13:01:57.958Z,8.12
2023-01-17T13:05:13.157Z,7.94
2023-01-17T13:08:41.469Z,7.86
2023-01-17T13:11:52.240Z,7.82
2023-01-17T13:14:55.756Z,7.70
2023-01-17T13:18:22.779Z,7.63
2023-01-17T13:21:31.529Z,7.54
2023-01-17T13:25:05.677Z,7.41
2023-01-17T13:28:36.120Z,7.29
2023-01-17T13:31:48.486Z,7.18
2023-01-17T13:35:13.127Z,7.13
2023-01-17T13:38:26.196Z,7.08
2023-01-17T13:41:48.580Z,7.04
2023-01-17T13:44:51.983Z,6.94
2023-01-17T13:48:12.537Z,6.91
2023-01-17T13:51:15.593Z,6.82
2023-01-17T13:54:32.076Z,6.87
2023-01-17T13:57:43.790Z,6.78
2023-01-17T14:00:46.786Z,6.75
2023-01-17T14:03:52.601Z,6.71
2023-01-17T14:06:58.091Z,6.67
2023-01-17T14:10:01.188Z,6.62
2023-01-17T14:13:07.055Z,6.61
2023-01-17T14:16:28.125Z,6.57
2023-01-17T14:19:37.335Z,6.56
2023-01-17T14:22:50.652Z,6.54
2023-01-17T14:25:54.045Z,6.54
2023-01-17T14:28:58.880Z,6.54
2023-01-17T14:32:05.750Z,6.54
2023-01-17T14:35:31.811Z,6.51
2023-01-17T14:38:42.951Z,6.48
2023-01-17T14:41:46.043Z,6.50
2023-01-17T14:44:50.949Z,6.51
2023-01-17T14:47:54.077Z,6.53
2023-01-17T14:51:00.268Z,6.49
2023-01-17T14:54:14.790Z,6.47
2023-01-17T14:57:29.605Z,6.43
2023-01-17T15:00:38.482Z,6.39
2023-01-17T15:03:46.537Z,6.44
2023-01-17T15:06:49.845Z,6.48
2023-01-17T15:09:52.588Z,6.45
2023-01-17T15:12:57.746Z,6.45
2023-01-17T15:16:06.296Z,6.46
2023-01-17T15:19:15.125Z,6.40
2023-01-17T15:22:19.448Z,6.36
2023-01-17T15:25:22.652Z,6.36
2023-01-17T15:28:25.706Z,6.30
2023-01-17T15:31:45.868Z,6.30
2023-01-17T15:34:50.635Z,6.29
2023-01-17T15:37:55.117Z,6.38
2023-01-17T15:41:11.893Z,6.40
2023-01-17T15:44:47.665Z,6.46
2023-01-17T15:47:51.129Z,6.51
2023-01-17T15:51:00.113Z,6.54
2023-01-17T15:54:30.840Z,6.59
2023-01-17T15:57:37.075Z,6.52
2023-01-17T16:00:42.166Z,6.54
2023-01-17T16:03:55.579Z,6.51
2023-01-17T16:07:09.841Z,6.42
2023-01-17T16:10:18.967Z,6.35
2023-01-17T16:13:22.107Z,6.25
2023-01-17T16:16:26.008Z,6.15
2023-01-17T16:19:28.973Z,6.10
2023-01-17T16:22:32.113Z,6.01
2023-01-17T16:25:35.009Z,5.96
2023-01-17T16:28:39.209Z,5.92
2023-01-17T16:31:42.405Z,5.90
2023-01-17T16:34:45.940Z,5.94
2023-01-17T16:37:54.004Z,5.87
2023-01-17T16:40:57.206Z,5.89
2023-01-17T16:44:02.919Z,5.89
2023-01-17T16:47:05.907Z,5.86
2023-01-17T16:50:10.856Z,5.89
2023-01-17T16:53:15.948Z,5.87
2023-01-17T16:56:19.936Z,5.86
2023-01-17T16:59:23.183Z,5.91
2023-01-17T17:02:25.917Z,5.91
2023-01-17T17:05:31.107Z,5.83
2023-01-17T17:08:35.708Z,5.82
2023-01-17T17:11:38.721Z,5.74
2023-01-17T17:14:41.827Z,5.70
2023-01-17T17:17:44.924Z,5.74
2023-01-17T17:20:49.699Z,5.69
2023-01-17T17:23:57.117Z,5.68
2023-01-17T17:27:00.755Z,5.65
2023-01-17T17:30:04.901Z,5.59
2023-01-17T17:33:07.963Z,5.60
2023-01-17T17:36:12.007Z,5.60
2023-01-17T17:39:17.466Z,5.58
2023-01-17T17:42:21.069Z,5.57
2023-01-17T17:45:24.049Z,5.53
2023-01-17T17:48:27.997Z,5.58
2023-01-17T17:51:34.005Z,5.47
2023-01-17T17:54:37.298Z,5.52
2023-01-17T17:57:40.966Z,5.47
2023-01-17T18:00:45.177Z,5.40
2023-01-17T18:03:49.060Z,5.38
2023-01-17T18:06:55.517Z,5.38
2023-01-17T18:09:59.480Z,5.40
2023-01-17T18:13:03.001Z,5.36
2023-01-17T18:16:17.406Z,5.29
2023-01-17T18:19:23.583Z,5.39
2023-01-17T18:22:27.730Z,5.36
2023-01-17T18:25:31.347Z,5.28
2023-01-17T18:28:35.506Z,5.21
2023-01-17T18:31:38.785Z,5.20
2023-01-17T18:34:43.391Z,5.24
2023-01-17T18:37:47.590Z,5.24
2023-01-17T18:40:51.753Z,5.29
2023-01-17T18:43:58.207Z,5.42
2023-01-17T18:47:04.879Z,5.44
2023-01-17T18:50:09.213Z,5.31
2023-01-17T18:53:13.115Z,5.28
2023-01-17T18:56:19.586Z,5.06
2023-01-17T18:59:23.690Z,4.94
2023-01-17T19:02:27.188Z,4.86
2023-01-17T19:05:31.305Z,4.74
2023-01-17T19:08:36.152Z,4.63
2023-01-17T19:11:40.104Z,4.63
2023-01-17T19:14:43.726Z,4.59
2023-01-17T19:17:48.056Z,4.52
2023-01-17T19:20:54.027Z,4.51
2023-01-17T19:23:59.912Z,4.40
2023-01-17T19:27:07.759Z,4.49
2023-01-17T19:30:12.783Z,4.30
2023-01-17T19:33:18.307Z,4.23
2023-01-17T19:36:25.290Z,4.16
2023-01-17T19:39:31.173Z,4.06
2023-01-17T19:42:35.179Z,3.91
2023-01-17T19:45:39.305Z,3.76
2023-01-17T19:48:43.845Z,3.73
2023-01-17T19:51:47.324Z,3.70
2023-01-17T19:54:51.256Z,3.72
2023-01-17T19:57:55.178Z,3.73
2023-01-17T20:01:11.266Z,3.74
2023-01-17T20:04:19.657Z,3.82
2023-01-17T20:07:23.526Z,3.84
2023-01-17T20:10:28.174Z,3.90
2023-01-17T20:13:32.673Z,3.96
2023-01-17T20:16:41.773Z,3.86
2023-01-17T20:19:46.606Z,3.91
2023-01-17T20:22:50.480Z,3.97
2023-01-17T20:26:02.241Z,3.89
2023-01-17T20:29:11.377Z,3.98
2023-01-17T20:32:14.605Z,3.94
2023-01-17T20:35:18.478Z,3.92
2023-01-17T20:38:21.768Z,3.82
2023-01-17T20:41:30.394Z,3.86
2023-01-17T20:44:34.777Z,3.79
2023-01-17T20:47:38.021Z,3.68
2023-01-17T20:50:41.366Z,3.68
2023-01-17T20:53:45.999Z,3.54
2023-01-17T20:56:49.456Z,3.50
2023-01-17T20:59:53.548Z,3.34
2023-01-17T21:02:57.631Z,3.26
2023-01-17T21:06:21.038Z,3.27
2023-01-17T21:09:24.722Z,3.19
2023-01-17T21:12:28.377Z,3.18
2023-01-17T21:15:31.048Z,3.19
2023-01-17T21:18:34.841Z,3.13
2023-01-17T21:21:38.006Z,3.17
2023-01-17T21:24:41.602Z,3.26
2023-01-17T21:27:45.819Z,3.31
2023-01-17T21:30:51.822Z,3.31
2023-01-17T21:34:00.040Z,3.37
2023-01-17T21:37:03.219Z,3.44
2023-01-17T21:40:06.292Z,3.57
2023-01-17T21:43:10.151Z,3.68
2023-01-17T21:46:12.985Z,3.66
2023-01-17T21:49:17.398Z,3.48
2023-01-17T21:52:20.113Z,3.45
2023-01-17T21:55:41.897Z,3.50
2023-01-17T21:58:45.031Z,3.57
2023-01-17T22:01:48.243Z,3.62
2023-01-17T22:04:51.646Z,3.63
2023-01-17T22:08:12.904Z,3.63
2023-01-17T22:11:19.075Z,3.78
2023-01-17T22:14:21.800Z,3.78
2023-01-17T22:17:25.075Z,3.95
2023-01-17T22:20:27.947Z,4.02
2023-01-17T22:23:31.135Z,4.12
2023-01-17T22:26:33.928Z,4.15
2023-01-17T22:29:38.148Z,4.29
2023-01-17T22:32:41.313Z,4.39
2023-01-17T22:35:44.391Z,4.28
2023-01-17T22:38:47.470Z,4.27
2023-01-17T22:41:50.485Z,4.32
2023-01-17T22:44:53.135Z,4.44
2023-01-17T22:47:56.334Z,4.40
2023-01-17T22:51:02.167Z,4.42
2023-01-17T22:54:05.629Z,4.36
2023-01-17T22:57:08.606Z,4.23
2023-01-17T23:00:14.771Z,4.28
2023-01-17T23:03:17.675Z,4.36
2023-01-17T23:06:27.457Z,4.36
2023-01-17T23:09:30.259Z,4.27
2023-01-17T23:12:33.408Z,4.43
2023-01-17T23:15:57.510Z,4.57
2023-01-17T23:19:19.387Z,4.60
2023-01-17T23:22:26.995Z,4.67
2023-01-17T23:25:30.235Z,4.51
2023-01-17T23:28:33.041Z,4.34
2023-01-17T23:31:36.892Z,4.36
2023-01-17T23:34:39.574Z,4.47
2023-01-17T23:38:01.476Z,4.44
2023-01-17T23:41:27.371Z,4.52
2023-01-17T23:44:32.017Z,4.56
2023-01-17T23:47:34.714Z,4.43
2023-01-17T23:50:44.329Z,4.33
2023-01-17T23:53:47.266Z,4.31
2023-01-17T23:56:50.300Z,4.33
2023-01-17T23:59:52.998Z,4.22
